Ar Rutbah, Iraq
Current Conditions -  °F | °C
As of 5:55 AM on Sunday 21 Dec 2014 (Local Time) from KQAJ Reporting Station
Broken Clouds Broken Clouds  
Wind Chill: 15°   Ceiling: 10000
Heat Index: 15°   Visibility: 6mi
Dew Point:   Wind: 12mph
Humidity: 66%   Direction: 320°NW
Pressure: 29.97"   Gusts: NA
Location:  33.04°N, 40.3°E
Report Text: KQAJ 210255Z 32010KT 9999 BKN100 15/09 A2997 RMK SLP145 T01480086 52011
Loading
Personal Weather Stations






























Interactive Weather Map New forecast layout! Learn more

10-Day Weather Forecast

Advertisements
Track Severe Weather on mobile